createdAt,value
2022-10-31T00:01:40.589Z,13.00
2022-10-31T00:04:46.613Z,12.70
2022-10-31T00:07:55.906Z,11.60
2022-10-31T00:11:01.967Z,12.90
2022-10-31T00:14:08.609Z,11.80
2022-10-31T00:17:14.722Z,11.50
2022-10-31T00:20:21.019Z,11.50
2022-10-31T00:26:33.162Z,9.50
2022-10-31T00:29:39.540Z,9.70
2022-10-31T00:35:54.938Z,9.80
2022-10-31T00:39:02.594Z,9.80
2022-10-31T00:42:08.821Z,10.20
2022-10-31T00:48:19.920Z,9.50
2022-10-31T00:51:26.064Z,9.90
2022-10-31T00:54:32.645Z,10.20
2022-10-31T00:57:38.714Z,10.00
2022-10-31T01:00:46.841Z,9.30
2022-10-31T01:03:55.778Z,8.80
2022-10-31T01:07:02.457Z,9.30
2022-10-31T01:10:10.053Z,8.90
2022-10-31T01:13:16.110Z,8.90
2022-10-31T01:16:24.336Z,8.30
2022-10-31T01:19:30.606Z,8.60
2022-10-31T01:25:43.636Z,8.30
2022-10-31T01:28:51.864Z,8.80
2022-10-31T01:31:58.100Z,8.60
2022-10-31T01:35:04.496Z,8.70
2022-10-31T01:38:10.509Z,9.30
2022-10-31T01:41:18.379Z,8.80
2022-10-31T01:44:59.152Z,9.00
2022-10-31T01:48:05.463Z,8.80
2022-10-31T01:51:15.492Z,8.60
2022-10-31T01:54:26.257Z,8.10
2022-10-31T01:57:34.340Z,9.20
2022-10-31T02:00:41.166Z,9.40
2022-10-31T02:03:48.716Z,10.60
2022-10-31T02:06:58.975Z,9.90
2022-10-31T02:10:07.163Z,9.40
2022-10-31T02:13:14.432Z,9.40
2022-10-31T02:16:20.643Z,8.90
2022-10-31T02:19:37.024Z,8.80
2022-10-31T02:22:53.550Z,7.80
2022-10-31T02:26:32.177Z,8.10
2022-10-31T02:29:56.874Z,8.00
2022-10-31T02:33:17.095Z,8.10
2022-10-31T02:36:30.808Z,8.60
2022-10-31T02:39:47.034Z,9.40
2022-10-31T02:43:00.766Z,10.10
2022-10-31T02:46:16.545Z,9.10
2022-10-31T02:49:30.097Z,9.40
2022-10-31T02:52:38.082Z,8.70
2022-10-31T02:55:58.787Z,9.00
2022-10-31T02:59:07.113Z,8.80
2022-10-31T03:02:34.036Z,8.20
2022-10-31T03:05:56.929Z,8.10
2022-10-31T03:09:12.189Z,7.50
2022-10-31T03:12:28.096Z,8.10
2022-10-31T03:15:37.102Z,7.20
2022-10-31T03:18:46.550Z,7.40
2022-10-31T03:21:57.847Z,7.60
2022-10-31T03:25:06.805Z,7.10
2022-10-31T03:28:17.061Z,6.40
2022-10-31T03:31:27.588Z,6.90
2022-10-31T03:34:34.279Z,6.60
2022-10-31T03:37:44.129Z,7.10
2022-10-31T03:40:53.462Z,6.70
2022-10-31T03:44:04.047Z,6.60
2022-10-31T03:47:10.502Z,6.10
2022-10-31T03:50:18.266Z,5.90
2022-10-31T03:53:33.081Z,6.50
2022-10-31T03:56:44.046Z,6.50
2022-10-31T03:59:54.191Z,6.60
2022-10-31T04:03:06.807Z,6.30
2022-10-31T04:06:16.874Z,6.90
2022-10-31T04:09:24.267Z,5.90
2022-10-31T04:12:31.886Z,6.50
2022-10-31T04:15:39.551Z,6.00
2022-10-31T04:18:46.286Z,6.10
2022-10-31T04:21:52.359Z,5.90
2022-10-31T04:24:58.440Z,6.20
2022-10-31T04:28:04.966Z,6.20
2022-10-31T04:31:13.141Z,6.00
2022-10-31T04:34:19.359Z,6.30
2022-10-31T04:37:25.435Z,6.40
2022-10-31T04:40:31.528Z,6.30
2022-10-31T04:43:37.730Z,6.20
2022-10-31T04:46:44.013Z,6.00
2022-10-31T04:52:54.653Z,6.70
2022-10-31T04:56:01.819Z,6.30
2022-10-31T04:59:08.200Z,6.60
2022-10-31T05:05:22.279Z,6.10
2022-10-31T05:08:28.337Z,7.30
2022-10-31T05:11:34.465Z,6.80
2022-10-31T05:14:42.377Z,6.70
2022-10-31T05:17:52.384Z,5.80
2022-10-31T05:20:58.540Z,6.20
2022-10-31T05:24:05.295Z,6.40
2022-10-31T05:27:11.407Z,5.80
2022-10-31T05:30:19.896Z,5.90
2022-10-31T05:33:25.984Z,5.80
2022-10-31T05:36:32.185Z,5.80
2022-10-31T05:39:38.206Z,5.80
2022-10-31T05:42:45.439Z,6.30
2022-10-31T05:45:56.337Z,6.70
2022-10-31T05:49:03.000Z,5.90
2022-10-31T05:52:09.499Z,6.00
2022-10-31T05:58:20.120Z,6.30
2022-10-31T06:01:26.248Z,6.30
2022-10-31T06:04:32.395Z,6.30
2022-10-31T06:07:38.842Z,6.60
2022-10-31T06:10:44.994Z,6.10
2022-10-31T06:13:51.083Z,6.00
2022-10-31T06:16:58.168Z,5.80
2022-10-31T06:20:05.094Z,5.40
2022-10-31T06:23:11.259Z,5.80
2022-10-31T06:26:17.547Z,6.50
2022-10-31T06:32:28.338Z,5.60
2022-10-31T06:35:34.517Z,6.20
2022-10-31T06:38:40.586Z,5.70
2022-10-31T06:41:49.058Z,6.50
2022-10-31T06:44:55.171Z,6.30
2022-10-31T06:48:16.628Z,5.70
2022-10-31T06:51:23.932Z,6.10
2022-10-31T06:54:30.321Z,5.80
2022-10-31T06:57:36.489Z,6.10
2022-10-31T07:00:42.755Z,5.90
2022-10-31T07:06:54.557Z,7.00
2022-10-31T07:10:00.690Z,6.80
2022-10-31T07:13:07.899Z,7.10
2022-10-31T07:16:14.993Z,7.10
2022-10-31T07:19:21.293Z,7.20
2022-10-31T07:25:32.211Z,7.40
2022-10-31T07:31:42.917Z,8.70
2022-10-31T07:34:49.121Z,9.00
2022-10-31T07:37:55.762Z,9.10
2022-10-31T07:41:01.936Z,9.00
2022-10-31T07:47:13.134Z,9.20
2022-10-31T07:53:24.792Z,9.30
2022-10-31T07:56:30.846Z,8.60
2022-10-31T07:59:36.862Z,8.60
2022-10-31T08:02:43.207Z,8.50
2022-10-31T08:08:54.517Z,9.10
2022-10-31T08:12:00.636Z,8.80
2022-10-31T08:15:07.959Z,9.10
2022-10-31T08:18:16.566Z,10.20
2022-10-31T08:21:22.606Z,10.40
2022-10-31T08:24:28.747Z,9.00
2022-10-31T08:27:34.817Z,8.00
2022-10-31T08:30:42.037Z,8.70
2022-10-31T08:33:48.083Z,8.70
2022-10-31T08:36:54.135Z,8.80
2022-10-31T08:40:00.219Z,8.60
2022-10-31T08:43:08.140Z,8.90
2022-10-31T08:46:14.538Z,8.90
2022-10-31T08:49:20.621Z,8.90
2022-10-31T08:52:51.225Z,8.70
2022-10-31T08:55:57.066Z,8.10
2022-10-31T08:59:03.495Z,8.20
2022-10-31T09:02:11.570Z,8.30
2022-10-31T09:05:17.972Z,7.80
2022-10-31T09:08:24.203Z,7.60
2022-10-31T09:14:34.845Z,7.60
2022-10-31T09:17:41.027Z,6.90
2022-10-31T09:23:54.998Z,6.90
2022-10-31T09:27:02.209Z,7.00
2022-10-31T09:30:09.784Z,5.80
2022-10-31T09:33:16.897Z,6.70
2022-10-31T09:36:22.986Z,6.30
2022-10-31T09:39:29.594Z,5.90
2022-10-31T09:42:50.831Z,5.60
2022-10-31T09:46:10.010Z,6.00
2022-10-31T09:49:36.397Z,6.50
2022-10-31T09:52:48.321Z,6.10
2022-10-31T09:55:55.889Z,5.60
2022-10-31T09:59:04.348Z,5.10
2022-10-31T10:02:20.199Z,5.30
2022-10-31T10:08:38.091Z,4.40
2022-10-31T10:12:04.034Z,4.50
2022-10-31T10:15:32.514Z,4.60
2022-10-31T10:18:47.070Z,4.20
2022-10-31T10:22:02.548Z,4.00
2022-10-31T10:25:22.457Z,4.00
2022-10-31T10:28:39.270Z,5.10
2022-10-31T10:31:48.230Z,4.30
2022-10-31T10:34:57.313Z,5.00
2022-10-31T10:38:13.009Z,4.50
2022-10-31T10:41:21.542Z,6.50
2022-10-31T10:44:45.496Z,4.90
2022-10-31T10:47:59.206Z,4.80
2022-10-31T10:51:20.278Z,5.20
2022-10-31T10:54:59.775Z,5.20
2022-10-31T10:58:09.078Z,4.70
2022-10-31T11:01:17.294Z,4.70
2022-10-31T11:04:34.017Z,4.80
2022-10-31T11:07:43.715Z,4.60
2022-10-31T11:10:58.075Z,4.80
2022-10-31T11:14:07.602Z,4.80
2022-10-31T11:17:20.124Z,4.60
2022-10-31T11:20:35.748Z,5.20
2022-10-31T11:26:48.642Z,5.10
2022-10-31T11:29:59.777Z,4.70
2022-10-31T11:33:08.033Z,4.40
2022-10-31T11:36:23.722Z,5.50
2022-10-31T11:42:41.387Z,4.80
2022-10-31T11:45:47.640Z,4.80
2022-10-31T11:48:56.312Z,5.10
2022-10-31T11:52:06.828Z,4.40
2022-10-31T11:55:33.601Z,5.00
2022-10-31T11:58:39.810Z,5.40
2022-10-31T12:01:51.657Z,5.10
2022-10-31T12:05:09.217Z,4.40
2022-10-31T12:08:16.254Z,4.50
2022-10-31T12:11:40.258Z,4.80
2022-10-31T12:14:55.827Z,5.20
2022-10-31T12:18:28.610Z,4.50
2022-10-31T12:21:50.871Z,4.60
2022-10-31T12:25:19.239Z,4.90
2022-10-31T12:28:51.027Z,4.80
2022-10-31T12:32:17.875Z,4.90
2022-10-31T12:35:46.956Z,4.70
2022-10-31T12:39:14.309Z,4.60
2022-10-31T12:42:32.763Z,4.30
2022-10-31T12:45:54.386Z,5.50
2022-10-31T12:49:22.669Z,5.00
2022-10-31T12:52:43.082Z,4.70
2022-10-31T12:56:01.969Z,5.40
2022-10-31T12:59:15.167Z,6.70
2022-10-31T13:02:26.464Z,7.80
2022-10-31T13:05:36.429Z,5.70
2022-10-31T13:08:48.215Z,4.90
2022-10-31T13:11:59.162Z,5.50
2022-10-31T13:15:14.959Z,5.40
2022-10-31T13:18:41.003Z,5.20
2022-10-31T13:21:56.486Z,5.10
2022-10-31T13:25:12.225Z,5.20
2022-10-31T13:28:31.445Z,5.30
2022-10-31T13:31:41.893Z,5.00
2022-10-31T13:34:55.047Z,5.80
2022-10-31T13:38:11.669Z,4.90
2022-10-31T13:41:32.459Z,5.10
2022-10-31T13:44:39.681Z,5.90
2022-10-31T13:47:57.014Z,5.60
2022-10-31T13:51:04.895Z,5.60
2022-10-31T13:54:25.787Z,5.30
2022-10-31T13:57:37.340Z,5.40
2022-10-31T14:00:43.887Z,5.00
2022-10-31T14:04:11.094Z,5.80
2022-10-31T14:07:23.850Z,6.10
2022-10-31T14:10:33.387Z,6.10
2022-10-31T14:13:44.117Z,5.00
2022-10-31T14:16:55.902Z,6.20
2022-10-31T14:20:05.585Z,7.80
2022-10-31T14:23:37.424Z,9.20
2022-10-31T14:26:53.641Z,8.90
2022-10-31T14:30:15.997Z,10.40
2022-10-31T14:33:24.588Z,13.50
2022-10-31T14:36:41.685Z,13.60
2022-10-31T14:40:00.539Z,14.70
2022-10-31T14:43:45.647Z,29.20
2022-10-31T14:46:59.315Z,29.70
2022-10-31T14:50:22.664Z,39.70
2022-10-31T14:53:31.689Z,33.30
2022-10-31T14:56:43.582Z,35.00
2022-10-31T14:59:55.880Z,31.80
2022-10-31T15:03:13.526Z,26.80
2022-10-31T15:06:22.146Z,51.30
2022-10-31T15:09:31.056Z,66.30
2022-10-31T15:12:39.510Z,46.10
2022-10-31T15:15:49.734Z,26.20
2022-10-31T15:19:00.723Z,19.40
2022-10-31T15:22:07.002Z,13.70
2022-10-31T15:25:21.989Z,9.80
2022-10-31T15:28:29.255Z,9.80
2022-10-31T15:31:35.907Z,9.90
2022-10-31T15:34:43.967Z,11.00
2022-10-31T15:37:50.166Z,10.40
2022-10-31T15:41:00.286Z,12.00
2022-10-31T15:44:14.924Z,15.60
2022-10-31T15:47:22.974Z,14.90
2022-10-31T15:50:34.768Z,16.50
2022-10-31T15:53:49.206Z,18.30
2022-10-31T15:56:55.553Z,22.70
2022-10-31T16:00:02.335Z,22.40
2022-10-31T16:03:20.585Z,23.00
2022-10-31T16:06:26.849Z,23.80
2022-10-31T16:09:33.316Z,17.40
2022-10-31T16:12:46.674Z,16.80
2022-10-31T16:16:21.237Z,18.00
2022-10-31T16:19:25.455Z,16.80
2022-10-31T16:22:33.998Z,14.90
2022-10-31T16:25:41.513Z,13.70
2022-10-31T16:29:03.339Z,13.10
2022-10-31T16:32:28.340Z,12.20
2022-10-31T16:35:38.419Z,9.40
2022-10-31T16:38:44.538Z,10.50
2022-10-31T16:44:57.627Z,10.20
2022-10-31T16:48:08.343Z,11.00
2022-10-31T16:51:14.490Z,12.80
2022-10-31T16:54:21.229Z,24.50
2022-10-31T16:57:32.014Z,14.30
2022-10-31T17:00:38.395Z,13.50
2022-10-31T17:03:44.446Z,12.40
2022-10-31T17:09:55.112Z,16.40
2022-10-31T17:16:07.453Z,14.80
2022-10-31T17:19:15.402Z,16.90
2022-10-31T17:22:21.491Z,32.10
2022-10-31T17:28:33.033Z,14.70
2022-10-31T17:31:39.909Z,12.50
2022-10-31T17:34:46.089Z,15.50
2022-10-31T17:40:57.135Z,19.30
2022-10-31T17:44:03.600Z,14.70
2022-10-31T17:47:09.801Z,13.90
2022-10-31T17:50:16.166Z,13.30
2022-10-31T17:53:22.744Z,13.20
2022-10-31T17:56:29.419Z,14.00
2022-10-31T17:59:35.497Z,14.90
2022-10-31T18:05:54.618Z,17.50
2022-10-31T18:09:03.523Z,39.40
2022-10-31T18:12:09.922Z,25.00
2022-10-31T18:15:16.301Z,19.10
2022-10-31T18:18:23.141Z,19.30
2022-10-31T18:21:29.483Z,18.00
2022-10-31T18:24:35.618Z,17.80
2022-10-31T18:30:46.296Z,20.30
2022-10-31T18:36:59.733Z,20.60
2022-10-31T18:43:11.044Z,17.00
2022-10-31T18:46:18.695Z,21.10
2022-10-31T18:49:26.029Z,22.40
2022-10-31T18:52:32.890Z,21.20
2022-10-31T18:55:45.481Z,20.10
2022-10-31T18:58:56.255Z,17.50
2022-10-31T19:02:02.994Z,17.00
2022-10-31T19:05:10.220Z,18.50
2022-10-31T19:08:16.499Z,21.80
2022-10-31T19:11:23.140Z,18.50
2022-10-31T19:14:29.225Z,17.10
2022-10-31T19:17:35.403Z,16.90
2022-10-31T19:23:47.451Z,16.30
2022-10-31T19:26:53.655Z,16.70
2022-10-31T19:33:04.585Z,18.30
2022-10-31T19:42:21.778Z,19.80
2022-10-31T19:45:27.892Z,18.40
2022-10-31T19:48:36.791Z,20.80
2022-10-31T19:51:42.945Z,20.10
2022-10-31T19:58:01.820Z,17.20
2022-10-31T20:01:12.382Z,18.00
2022-10-31T20:04:18.812Z,17.20
2022-10-31T20:07:25.134Z,19.20
2022-10-31T20:10:31.337Z,18.00
2022-10-31T20:16:42.450Z,17.10
2022-10-31T20:19:48.743Z,17.00
2022-10-31T20:22:55.034Z,16.60
2022-10-31T20:29:06.526Z,16.50
2022-10-31T20:32:12.625Z,18.10
2022-10-31T20:35:19.180Z,17.00
2022-10-31T20:38:25.442Z,17.00
2022-10-31T20:44:36.235Z,17.20
2022-10-31T20:47:42.646Z,16.90
2022-10-31T20:50:48.873Z,19.10
2022-10-31T20:57:00.177Z,18.00
2022-10-31T21:03:11.565Z,15.10
2022-10-31T21:06:19.032Z,16.60
2022-10-31T21:09:25.126Z,15.70
2022-10-31T21:12:31.196Z,18.30
2022-10-31T21:15:37.438Z,20.50
2022-10-31T21:21:49.136Z,19.30
2022-10-31T21:24:55.206Z,17.40
2022-10-31T21:28:01.863Z,17.30
2022-10-31T21:31:11.919Z,16.80
2022-10-31T21:34:18.282Z,16.50
2022-10-31T21:37:24.377Z,20.60
2022-10-31T21:40:30.806Z,22.00
2022-10-31T21:43:39.120Z,22.00
2022-10-31T21:46:47.535Z,24.50
2022-10-31T21:49:53.634Z,24.20
2022-10-31T21:53:20.854Z,20.80
2022-10-31T21:56:27.020Z,19.40
2022-10-31T22:02:38.286Z,16.10
2022-10-31T22:05:44.327Z,16.00
2022-10-31T22:08:51.026Z,16.40
2022-10-31T22:11:57.425Z,16.40
2022-10-31T22:15:03.676Z,16.70
2022-10-31T22:21:16.958Z,18.70
2022-10-31T22:24:23.294Z,18.00
2022-10-31T22:27:29.548Z,17.70
2022-10-31T22:30:38.444Z,21.20
2022-10-31T22:33:44.690Z,18.70
2022-10-31T22:39:55.875Z,21.40
2022-10-31T22:43:02.370Z,18.60
2022-10-31T22:46:11.714Z,18.00
2022-10-31T22:49:17.937Z,19.60
2022-10-31T22:52:24.113Z,20.60
2022-10-31T22:55:30.380Z,21.90
2022-10-31T23:01:41.913Z,21.80
2022-10-31T23:04:48.151Z,21.30
2022-10-31T23:07:54.701Z,19.60
2022-10-31T23:11:00.742Z,19.10
2022-10-31T23:14:12.127Z,21.90
2022-10-31T23:17:18.840Z,19.70
2022-10-31T23:20:25.122Z,20.10
2022-10-31T23:26:53.317Z,19.90
2022-10-31T23:30:01.473Z,18.80
2022-10-31T23:33:07.705Z,19.50
2022-10-31T23:36:14.296Z,19.80
2022-10-31T23:39:24.148Z,20.10
2022-10-31T23:42:31.685Z,19.60
2022-10-31T23:45:37.854Z,20.50
2022-10-31T23:48:48.143Z,18.80
2022-10-31T23:51:56.682Z,19.40
2022-10-31T23:55:02.915Z,19.20
2022-10-31T23:58:08.990Z,19.60
